createdAt,value
2023-04-13T00:00:21.580Z,2.49
2023-04-13T00:02:54.190Z,2.63
2023-04-13T00:05:21.132Z,2.49
2023-04-13T00:07:48.483Z,2.50
2023-04-13T00:10:19.133Z,2.43
2023-04-13T00:12:48.491Z,2.56
2023-04-13T00:15:15.671Z,2.79
2023-04-13T00:17:45.466Z,2.69
2023-04-13T00:20:14.965Z,2.76
2023-04-13T00:22:44.584Z,3.07
2023-04-13T00:25:14.589Z,3.38
2023-04-13T00:27:42.314Z,3.43
2023-04-13T00:30:13.212Z,3.44
2023-04-13T00:32:40.567Z,3.56
2023-04-13T00:35:07.848Z,3.62
2023-04-13T00:37:34.334Z,3.56
2023-04-13T00:40:00.889Z,3.54
2023-04-13T00:42:27.392Z,3.63
2023-04-13T00:44:53.983Z,3.73
2023-04-13T00:47:33.940Z,3.59
2023-04-13T00:50:01.318Z,3.49
2023-04-13T00:52:28.975Z,3.46
2023-04-13T00:54:56.369Z,3.56
2023-04-13T00:57:23.939Z,3.49
2023-04-13T00:59:52.120Z,3.51
2023-04-13T01:02:24.690Z,3.49
2023-04-13T01:04:51.502Z,3.37
2023-04-13T01:07:37.923Z,3.26
2023-04-13T01:10:19.014Z,3.21
2023-04-13T01:13:14.495Z,3.19
2023-04-13T01:15:43.185Z,3.39
2023-04-13T01:18:10.066Z,3.31
2023-04-13T01:20:38.135Z,3.38
2023-04-13T01:23:07.743Z,3.43
2023-04-13T01:25:51.365Z,3.50
2023-04-13T01:28:21.491Z,3.53
2023-04-13T01:30:49.368Z,3.43
2023-04-13T01:33:16.273Z,3.50
2023-04-13T01:35:43.338Z,3.56
2023-04-13T01:38:10.257Z,3.65
2023-04-13T01:40:40.523Z,3.80
2023-04-13T01:43:07.256Z,3.84
2023-04-13T01:45:46.027Z,3.86
2023-04-13T01:48:18.200Z,3.82
2023-04-13T01:51:09.301Z,3.82
2023-04-13T01:53:38.286Z,3.79
2023-04-13T01:56:05.137Z,3.87
2023-04-13T01:58:33.692Z,3.90
2023-04-13T02:01:00.340Z,3.94
2023-04-13T02:03:26.964Z,3.96
2023-04-13T02:05:53.569Z,4.00
2023-04-13T02:08:20.721Z,4.01
2023-04-13T02:10:47.266Z,4.07
2023-04-13T02:13:13.929Z,4.01
2023-04-13T02:15:41.472Z,4.04
2023-04-13T02:18:07.971Z,4.08
2023-04-13T02:20:44.892Z,4.12
2023-04-13T02:23:14.630Z,4.09
2023-04-13T02:25:44.825Z,4.05
2023-04-13T02:28:12.540Z,4.08
2023-04-13T02:30:39.064Z,4.08
2023-04-13T02:33:06.876Z,4.11
2023-04-13T02:35:35.603Z,4.07
2023-04-13T02:38:03.839Z,4.14
2023-04-13T02:40:30.325Z,4.14
2023-04-13T02:42:57.108Z,4.07
2023-04-13T02:45:23.926Z,4.06
2023-04-13T02:47:50.534Z,4.06
2023-04-13T02:50:18.007Z,4.14
2023-04-13T02:52:45.120Z,4.14
2023-04-13T02:55:11.999Z,4.10
2023-04-13T02:57:38.699Z,4.13
2023-04-13T03:00:13.287Z,4.17
2023-04-13T03:02:39.978Z,4.16
2023-04-13T03:05:06.918Z,4.16
2023-04-13T03:07:33.993Z,4.08
2023-04-13T03:10:02.658Z,4.12
2023-04-13T03:12:30.160Z,4.09
2023-04-13T03:14:56.619Z,4.01
2023-04-13T03:17:23.198Z,4.05
2023-04-13T03:19:50.752Z,3.98
2023-04-13T03:22:17.336Z,3.89
2023-04-13T03:24:43.898Z,3.89
2023-04-13T03:27:10.394Z,3.96
2023-04-13T03:29:37.590Z,3.92
2023-04-13T03:32:04.210Z,3.89
2023-04-13T03:34:30.987Z,3.92
2023-04-13T03:36:57.455Z,3.93
2023-04-13T03:39:23.949Z,3.88
2023-04-13T03:41:50.422Z,3.92
2023-04-13T03:44:17.002Z,3.99
2023-04-13T03:46:44.892Z,3.95
2023-04-13T03:49:11.468Z,3.97
2023-04-13T03:51:37.979Z,3.99
2023-04-13T03:54:04.440Z,4.03
2023-04-13T03:56:31.019Z,4.06
2023-04-13T03:58:57.552Z,4.03
2023-04-13T04:01:24.040Z,4.07
2023-04-13T04:03:50.878Z,4.11
2023-04-13T04:06:17.464Z,4.11
2023-04-13T04:08:45.391Z,4.17
2023-04-13T04:11:11.916Z,4.19
2023-04-13T04:13:38.389Z,4.20
2023-04-13T04:16:07.101Z,4.23
2023-04-13T04:18:33.696Z,4.25
2023-04-13T04:21:02.673Z,4.29
2023-04-13T04:23:29.725Z,4.27
2023-04-13T04:25:59.400Z,4.27
2023-04-13T04:28:25.990Z,4.31
2023-04-13T04:30:55.385Z,4.34
2023-04-13T04:33:24.707Z,4.30
2023-04-13T04:35:51.459Z,4.32
2023-04-13T04:38:18.219Z,4.31
2023-04-13T04:40:45.640Z,4.35
2023-04-13T04:43:13.342Z,4.29
2023-04-13T04:45:43.758Z,4.36
2023-04-13T04:48:11.855Z,4.41
2023-04-13T04:50:38.840Z,4.44
2023-04-13T04:53:05.330Z,4.48
2023-04-13T04:55:31.960Z,4.58
2023-04-13T04:57:58.448Z,4.58
2023-04-13T05:00:26.551Z,4.60
2023-04-13T05:02:53.230Z,4.63
2023-04-13T05:05:20.005Z,4.62
2023-04-13T05:07:46.590Z,4.63
2023-04-13T05:10:13.131Z,4.63
2023-04-13T05:12:39.622Z,4.69
2023-04-13T05:15:06.837Z,4.68
2023-04-13T05:17:33.418Z,4.69
2023-04-13T05:19:59.918Z,4.73
2023-04-13T05:22:26.387Z,4.78
2023-04-13T05:24:52.870Z,4.84
2023-04-13T05:27:19.354Z,4.81
2023-04-13T05:29:47.714Z,4.88
2023-04-13T05:32:14.483Z,4.92
2023-04-13T05:34:41.227Z,4.94
2023-04-13T05:37:08.624Z,4.91
2023-04-13T05:39:35.095Z,4.94
2023-04-13T05:42:01.831Z,5.01
2023-04-13T05:44:28.885Z,5.05
2023-04-13T05:46:55.370Z,4.98
2023-04-13T05:49:21.881Z,4.97
2023-04-13T05:51:48.357Z,4.99
2023-04-13T05:54:14.828Z,5.08
2023-04-13T05:56:41.446Z,5.02
2023-04-13T05:59:08.692Z,5.08
2023-04-13T06:01:36.401Z,5.05
2023-04-13T06:04:03.801Z,5.11
2023-04-13T06:06:30.607Z,5.12
2023-04-13T06:08:57.383Z,5.21
2023-04-13T06:11:25.086Z,5.22
2023-04-13T06:13:51.587Z,5.17
2023-04-13T06:16:18.747Z,5.16
2023-04-13T06:18:45.480Z,5.19
2023-04-13T06:21:12.437Z,5.18
2023-04-13T06:23:38.927Z,5.16
2023-04-13T06:26:06.366Z,5.29
2023-04-13T06:28:33.567Z,5.29
2023-04-13T06:31:00.144Z,5.34
2023-04-13T06:33:26.719Z,5.37
2023-04-13T06:35:53.199Z,5.38
2023-04-13T06:38:19.729Z,5.40
2023-04-13T06:40:46.218Z,5.38
2023-04-13T06:43:26.255Z,5.45
2023-04-13T06:45:59.660Z,5.52
2023-04-13T06:48:26.332Z,5.49
2023-04-13T06:50:55.500Z,5.49
2023-04-13T06:53:22.095Z,5.54
2023-04-13T06:55:48.575Z,5.54
2023-04-13T06:58:15.564Z,5.63
2023-04-13T07:00:42.108Z,5.64
2023-04-13T07:03:08.748Z,5.67
2023-04-13T07:05:35.593Z,5.67
2023-04-13T07:08:02.199Z,5.72
2023-04-13T07:10:28.694Z,5.71
2023-04-13T07:12:55.187Z,5.77
2023-04-13T07:15:21.768Z,5.70
2023-04-13T07:17:49.355Z,5.77
2023-04-13T07:20:16.241Z,5.83
2023-04-13T07:22:43.012Z,5.92
2023-04-13T07:25:09.621Z,5.85
2023-04-13T07:27:36.100Z,5.95
2023-04-13T07:30:02.590Z,5.97
2023-04-13T07:32:31.326Z,6.09
2023-04-13T07:35:01.334Z,6.24
2023-04-13T07:37:27.979Z,6.26
2023-04-13T07:39:55.008Z,6.23
2023-04-13T07:42:21.511Z,6.31
2023-04-13T07:44:47.982Z,6.17
2023-04-13T07:47:14.670Z,6.21
2023-04-13T07:49:41.212Z,6.22
2023-04-13T07:52:07.937Z,6.17
2023-04-13T07:54:35.058Z,6.15
2023-04-13T07:57:02.968Z,6.16
2023-04-13T07:59:29.831Z,6.05
2023-04-13T08:01:56.408Z,6.07
2023-04-13T08:04:23.043Z,6.02
2023-04-13T08:06:49.687Z,6.10
2023-04-13T08:09:16.157Z,6.20
2023-04-13T08:11:42.929Z,6.14
2023-04-13T08:14:11.594Z,6.22
2023-04-13T08:16:38.231Z,6.27
2023-04-13T08:19:04.770Z,6.25
2023-04-13T08:21:32.716Z,6.39
2023-04-13T08:23:59.201Z,6.32
2023-04-13T08:26:26.287Z,6.31
2023-04-13T08:28:53.058Z,6.41
2023-04-13T08:31:20.421Z,6.38
2023-04-13T08:33:47.010Z,6.38
2023-04-13T08:36:13.484Z,6.46
2023-04-13T08:38:39.954Z,6.64
2023-04-13T08:41:06.734Z,6.65
2023-04-13T08:43:33.402Z,6.93
2023-04-13T08:45:59.984Z,7.23
2023-04-13T08:48:28.145Z,7.38
2023-04-13T08:50:56.901Z,7.39
2023-04-13T08:53:23.371Z,7.48
2023-04-13T08:55:50.289Z,7.58
2023-04-13T08:58:19.694Z,7.67
2023-04-13T09:00:47.893Z,7.87
2023-04-13T09:03:14.962Z,7.81
2023-04-13T09:05:41.886Z,7.91
2023-04-13T09:08:08.564Z,7.86
2023-04-13T09:10:35.120Z,7.94
2023-04-13T09:13:01.636Z,8.05
2023-04-13T09:15:28.148Z,8.09
2023-04-13T09:17:54.651Z,8.15
2023-04-13T09:20:22.998Z,8.21
2023-04-13T09:22:50.036Z,8.24
2023-04-13T09:25:24.045Z,8.60
2023-04-13T09:27:52.083Z,8.77
2023-04-13T09:30:20.253Z,9.20
2023-04-13T09:32:47.135Z,9.20
2023-04-13T09:35:13.638Z,9.48
2023-04-13T09:37:43.776Z,9.44
2023-04-13T09:40:18.572Z,9.96
2023-04-13T09:42:54.100Z,9.80
2023-04-13T09:45:20.707Z,9.82
2023-04-13T09:47:47.732Z,9.90
2023-04-13T09:50:34.809Z,10.88
2023-04-13T09:53:01.737Z,10.82
2023-04-13T09:55:28.893Z,11.24
2023-04-13T09:57:56.048Z,11.56
2023-04-13T10:00:23.591Z,11.22
2023-04-13T10:02:50.795Z,11.14
2023-04-13T10:05:18.890Z,11.24
2023-04-13T10:07:45.636Z,11.57
2023-04-13T10:10:12.797Z,11.56
2023-04-13T10:12:42.166Z,11.38
2023-04-13T10:15:44.111Z,11.36
2023-04-13T10:18:47.972Z,11.15
2023-04-13T10:21:15.181Z,10.95
2023-04-13T10:23:41.898Z,10.83
2023-04-13T10:26:08.366Z,10.91
2023-04-13T10:28:48.186Z,10.76
2023-04-13T10:31:14.800Z,10.29
2023-04-13T10:33:50.840Z,10.25
2023-04-13T10:36:17.654Z,10.18
2023-04-13T10:38:44.924Z,10.30
2023-04-13T10:41:22.684Z,10.30
2023-04-13T10:43:49.162Z,10.36
2023-04-13T10:46:16.343Z,10.28
2023-04-13T10:48:42.906Z,10.23
2023-04-13T10:51:09.407Z,10.04
2023-04-13T10:53:36.785Z,9.74
2023-04-13T10:56:05.097Z,9.70
2023-04-13T10:58:33.140Z,9.43
2023-04-13T11:00:59.884Z,9.58
2023-04-13T11:03:29.842Z,9.80
2023-04-13T11:05:57.767Z,9.83
2023-04-13T11:08:24.388Z,9.93
2023-04-13T11:10:54.910Z,9.98
2023-04-13T11:13:21.663Z,10.06
2023-04-13T11:15:49.324Z,10.01
2023-04-13T11:18:24.278Z,10.32
2023-04-13T11:20:50.797Z,10.47
2023-04-13T11:23:18.648Z,10.57
2023-04-13T11:25:55.032Z,10.62
2023-04-13T11:28:22.781Z,10.54
2023-04-13T11:30:56.332Z,10.31
2023-04-13T11:33:26.929Z,10.68
2023-04-13T11:35:57.368Z,11.34
2023-04-13T11:38:23.849Z,11.49
2023-04-13T11:40:56.772Z,11.43
2023-04-13T11:43:28.264Z,11.32
2023-04-13T11:45:54.862Z,10.80
2023-04-13T11:48:21.373Z,10.44
2023-04-13T11:50:48.298Z,10.63
2023-04-13T11:53:15.218Z,10.20
2023-04-13T11:55:52.544Z,10.05
2023-04-13T11:58:20.466Z,9.96
2023-04-13T12:00:48.244Z,10.13
2023-04-13T12:03:34.664Z,9.95
2023-04-13T12:06:02.701Z,9.90
2023-04-13T12:08:33.812Z,9.61
2023-04-13T12:13:51.927Z,10.10
2023-04-13T12:17:01.415Z,10.94
2023-04-13T12:19:25.888Z,10.59
2023-04-13T12:21:56.435Z,11.27
2023-04-13T12:24:38.110Z,12.01
2023-04-13T12:29:40.630Z,11.66
2023-04-13T12:32:14.190Z,11.48
2023-04-13T12:34:41.585Z,11.56
2023-04-13T12:37:08.354Z,11.74
2023-04-13T12:39:35.165Z,11.45
2023-04-13T12:42:02.398Z,12.06
2023-04-13T12:44:29.405Z,12.41
2023-04-13T12:46:56.930Z,11.86
2023-04-13T12:49:23.427Z,12.27
2023-04-13T12:51:49.916Z,12.92
2023-04-13T12:54:17.994Z,12.87
2023-04-13T12:56:44.496Z,12.97
2023-04-13T12:59:11.165Z,13.42
2023-04-13T13:01:38.201Z,13.50
2023-04-13T13:04:05.133Z,13.88
2023-04-13T13:06:32.788Z,13.57
2023-04-13T13:08:59.602Z,13.67
2023-04-13T13:11:27.387Z,13.81
2023-04-13T13:13:53.866Z,13.23
2023-04-13T13:16:20.506Z,12.84
2023-04-13T13:19:00.776Z,12.70
2023-04-13T13:21:27.524Z,12.45
2023-04-13T13:23:53.992Z,12.55
2023-04-13T13:26:24.485Z,13.36
2023-04-13T13:28:52.754Z,14.38
2023-04-13T13:31:19.476Z,13.44
2023-04-13T13:33:46.326Z,12.45
2023-04-13T13:36:14.209Z,13.58
2023-04-13T13:38:41.246Z,14.06
2023-04-13T13:41:07.791Z,14.57
2023-04-13T13:43:34.296Z,13.74
2023-04-13T13:46:00.876Z,13.28
2023-04-13T13:48:27.394Z,11.95
2023-04-13T13:50:55.841Z,11.79
2023-04-13T13:53:22.346Z,12.21
2023-04-13T13:55:50.783Z,11.91
2023-04-13T13:58:17.307Z,12.33
2023-04-13T14:00:43.913Z,12.64
2023-04-13T14:03:10.733Z,12.96
2023-04-13T14:05:37.674Z,13.01
2023-04-13T14:08:04.269Z,12.64
2023-04-13T14:10:30.783Z,13.40
2023-04-13T14:12:58.780Z,13.69
2023-04-13T14:15:25.694Z,13.34
2023-04-13T14:18:06.525Z,13.64
2023-04-13T14:20:38.910Z,13.38
2023-04-13T14:23:05.982Z,13.42
2023-04-13T14:25:32.523Z,13.40
2023-04-13T14:27:59.036Z,13.06
2023-04-13T14:30:27.920Z,13.23
2023-04-13T14:32:54.997Z,13.23
2023-04-13T14:35:21.643Z,13.04
2023-04-13T14:37:48.135Z,12.89
2023-04-13T14:40:17.037Z,12.51
2023-04-13T14:42:43.719Z,12.66
2023-04-13T14:45:12.257Z,12.20
2023-04-13T14:47:39.714Z,12.40
2023-04-13T14:50:08.213Z,12.89
2023-04-13T14:52:34.739Z,12.58
2023-04-13T14:55:01.506Z,12.20
2023-04-13T14:57:28.329Z,12.33
2023-04-13T14:59:56.300Z,12.44
2023-04-13T15:02:23.534Z,11.84
2023-04-13T15:04:50.456Z,11.81
2023-04-13T15:07:18.816Z,11.72
2023-04-13T15:09:45.418Z,11.65
2023-04-13T15:12:13.341Z,11.77
2023-04-13T15:14:40.596Z,11.58
2023-04-13T15:17:08.404Z,11.61
2023-04-13T15:19:35.021Z,11.65
2023-04-13T15:22:01.520Z,11.79
2023-04-13T15:24:28.012Z,11.80
2023-04-13T15:26:54.605Z,11.64
2023-04-13T15:29:21.126Z,11.70
2023-04-13T15:31:47.711Z,11.66
2023-04-13T15:34:14.211Z,11.63
2023-04-13T15:36:40.720Z,11.53
2023-04-13T15:39:07.371Z,11.33
2023-04-13T15:41:33.942Z,11.24
2023-04-13T15:44:01.405Z,11.37
2023-04-13T15:46:28.042Z,11.31
2023-04-13T15:48:54.877Z,11.42
2023-04-13T15:51:21.914Z,11.36
2023-04-13T15:53:48.662Z,11.31
2023-04-13T15:56:15.193Z,11.27
2023-04-13T15:58:41.776Z,11.29
2023-04-13T16:01:09.372Z,11.37
2023-04-13T16:03:36.633Z,11.32
2023-04-13T16:06:03.451Z,11.38
2023-04-13T16:08:29.982Z,11.20
2023-04-13T16:10:56.504Z,11.00
2023-04-13T16:13:23.074Z,11.16
2023-04-13T16:15:53.293Z,11.22
2023-04-13T16:18:22.877Z,11.27
2023-04-13T16:20:52.283Z,11.30
2023-04-13T16:23:21.356Z,10.96
2023-04-13T16:25:47.979Z,10.99
2023-04-13T16:28:14.489Z,10.96
2023-04-13T16:30:44.350Z,10.93
2023-04-13T16:33:11.303Z,11.06
2023-04-13T16:35:37.969Z,11.14
2023-04-13T16:38:04.467Z,10.97
2023-04-13T16:40:31.033Z,11.14
2023-04-13T16:42:57.543Z,11.24
2023-04-13T16:45:24.575Z,11.21
2023-04-13T16:47:54.334Z,11.25
2023-04-13T16:50:20.915Z,11.16
2023-04-13T16:52:47.435Z,10.81
2023-04-13T16:55:14.813Z,10.79
2023-04-13T16:57:42.713Z,10.78
2023-04-13T17:00:10.937Z,10.90
2023-04-13T17:02:41.834Z,10.87
2023-04-13T17:05:09.372Z,10.82
2023-04-13T17:07:38.882Z,10.77
2023-04-13T17:10:06.429Z,10.88
2023-04-13T17:12:32.912Z,10.86
2023-04-13T17:15:00.815Z,10.89
2023-04-13T17:17:27.916Z,10.89
2023-04-13T17:19:54.643Z,10.88
2023-04-13T17:22:21.536Z,10.86
2023-04-13T17:24:48.473Z,10.77
2023-04-13T17:27:15.462Z,10.84
2023-04-13T17:29:41.946Z,10.84
2023-04-13T17:32:08.476Z,10.90
2023-04-13T17:34:35.008Z,10.66
2023-04-13T17:37:02.112Z,10.27
2023-04-13T17:39:29.118Z,10.31
2023-04-13T17:41:56.274Z,10.27
2023-04-13T17:44:22.803Z,10.19
2023-04-13T17:46:50.242Z,10.14
2023-04-13T17:49:16.701Z,10.12
2023-04-13T17:51:49.435Z,10.05
2023-04-13T17:54:15.942Z,9.99
2023-04-13T17:56:42.445Z,9.92
2023-04-13T17:59:13.070Z,9.87
2023-04-13T18:01:41.255Z,9.71
2023-04-13T18:04:10.336Z,9.42
2023-04-13T18:06:36.986Z,9.26
2023-04-13T18:09:03.761Z,9.01
2023-04-13T18:11:30.295Z,8.77
2023-04-13T18:13:56.815Z,8.57
2023-04-13T18:16:23.380Z,8.09
2023-04-13T18:18:51.317Z,8.02
2023-04-13T18:21:19.519Z,7.65
2023-04-13T18:23:46.816Z,7.58
2023-04-13T18:26:13.302Z,7.70
2023-04-13T18:28:40.979Z,7.84
2023-04-13T18:31:07.862Z,7.68
2023-04-13T18:33:34.378Z,7.39
2023-04-13T18:36:00.873Z,7.17
2023-04-13T18:38:27.372Z,6.94
2023-04-13T18:40:53.862Z,6.77
2023-04-13T18:43:20.447Z,6.73
2023-04-13T18:45:46.973Z,6.97
2023-04-13T18:48:13.696Z,6.87
2023-04-13T18:50:40.452Z,6.71
2023-04-13T18:53:06.973Z,6.70
2023-04-13T18:55:33.503Z,6.67
2023-04-13T18:57:59.997Z,6.79
2023-04-13T19:00:26.489Z,6.73
2023-04-13T19:02:53.175Z,6.63
2023-04-13T19:05:19.853Z,6.57
2023-04-13T19:07:59.016Z,6.53
2023-04-13T19:10:26.098Z,6.20
2023-04-13T19:12:52.620Z,6.05
2023-04-13T19:15:19.227Z,5.90
2023-04-13T19:17:45.886Z,5.97
2023-04-13T19:20:13.088Z,5.89
2023-04-13T19:22:39.596Z,5.90
2023-04-13T19:25:07.464Z,5.81
2023-04-13T19:27:33.944Z,6.03
2023-04-13T19:30:00.610Z,6.27
2023-04-13T19:32:27.144Z,6.53
2023-04-13T19:34:53.657Z,6.35
2023-04-13T19:37:20.337Z,6.22
2023-04-13T19:39:46.898Z,6.27
2023-04-13T19:42:13.387Z,6.27
2023-04-13T19:44:39.910Z,6.39
2023-04-13T19:47:06.392Z,6.15
2023-04-13T19:49:33.335Z,5.93
2023-04-13T19:52:02.041Z,5.87
2023-04-13T19:54:28.516Z,5.92
2023-04-13T19:56:54.998Z,5.95
2023-04-13T19:59:21.450Z,6.05
2023-04-13T20:01:47.992Z,5.86
2023-04-13T20:04:14.696Z,5.70
2023-04-13T20:06:41.345Z,5.63
2023-04-13T20:09:11.947Z,5.77
2023-04-13T20:11:39.159Z,6.03
2023-04-13T20:14:05.718Z,6.09
2023-04-13T20:16:32.444Z,6.36
2023-04-13T20:18:59.046Z,6.33
2023-04-13T20:21:26.482Z,6.19
2023-04-13T20:23:53.019Z,5.89
2023-04-13T20:26:19.650Z,6.04
2023-04-13T20:28:46.124Z,5.85
2023-04-13T20:31:12.842Z,5.93
2023-04-13T20:33:39.394Z,5.86
2023-04-13T20:36:06.217Z,5.67
2023-04-13T20:38:36.355Z,5.41
2023-04-13T20:41:02.764Z,5.29
2023-04-13T20:43:29.499Z,5.35
2023-04-13T20:45:57.311Z,5.46
2023-04-13T20:50:55.427Z,5.43
2023-04-13T20:53:23.950Z,5.44
2023-04-13T20:55:51.466Z,5.26
2023-04-13T20:58:18.227Z,5.25
2023-04-13T21:00:44.818Z,5.05
2023-04-13T21:03:11.526Z,4.90
2023-04-13T21:05:38.207Z,5.10
2023-04-13T21:08:04.711Z,5.33
2023-04-13T21:10:31.216Z,5.32
2023-04-13T21:12:57.714Z,5.32
2023-04-13T21:15:24.193Z,5.11
2023-04-13T21:17:50.987Z,5.16
2023-04-13T21:20:17.528Z,5.19
2023-04-13T21:22:44.003Z,5.27
2023-04-13T21:25:10.933Z,5.17
2023-04-13T21:27:37.425Z,5.11
2023-04-13T21:30:04.372Z,5.06
2023-04-13T21:32:31.002Z,5.07
2023-04-13T21:34:57.651Z,5.01
2023-04-13T21:37:24.144Z,5.14
2023-04-13T21:39:50.724Z,5.28
2023-04-13T21:42:17.217Z,5.37
2023-04-13T21:44:43.683Z,5.26
2023-04-13T21:47:10.166Z,5.17
2023-04-13T21:49:36.824Z,5.10
2023-04-13T21:52:03.325Z,5.09
2023-04-13T21:54:29.809Z,5.07
2023-04-13T21:56:56.290Z,5.01
2023-04-13T21:59:27.107Z,4.88
2023-04-13T22:01:54.592Z,4.64
2023-04-13T22:04:21.391Z,4.64
2023-04-13T22:06:48.003Z,4.68
2023-04-13T22:09:14.485Z,4.76
2023-04-13T22:11:41.046Z,4.83
2023-04-13T22:14:07.517Z,4.86
2023-04-13T22:16:34.098Z,4.64
2023-04-13T22:19:00.780Z,4.41
2023-04-13T22:21:27.704Z,4.25
2023-04-13T22:23:54.189Z,4.25
2023-04-13T22:26:20.889Z,4.39
2023-04-13T22:28:47.365Z,4.36
2023-04-13T22:31:13.912Z,4.48
2023-04-13T22:33:40.846Z,4.76
2023-04-13T22:36:19.393Z,4.97
2023-04-13T22:38:46.645Z,4.88
2023-04-13T22:41:13.133Z,4.73
2023-04-13T22:43:39.623Z,4.55
2023-04-13T22:46:06.331Z,4.75
2023-04-13T22:48:32.844Z,4.81
2023-04-13T22:51:03.626Z,4.84
2023-04-13T22:53:30.237Z,4.73
2023-04-13T22:55:56.934Z,4.68
2023-04-13T22:58:23.544Z,4.60
2023-04-13T23:00:50.048Z,4.55
2023-04-13T23:03:16.884Z,4.55
2023-04-13T23:05:43.459Z,4.52
2023-04-13T23:08:09.924Z,4.50
2023-04-13T23:10:36.636Z,4.41
2023-04-13T23:13:04.115Z,4.40
2023-04-13T23:15:30.697Z,4.39
2023-04-13T23:17:57.243Z,4.20
2023-04-13T23:20:24.081Z,4.24
2023-04-13T23:22:50.606Z,4.21
2023-04-13T23:25:17.164Z,4.15
2023-04-13T23:27:43.678Z,4.00
2023-04-13T23:30:10.697Z,3.96
2023-04-13T23:32:37.345Z,4.16
2023-04-13T23:35:03.967Z,4.13
2023-04-13T23:37:30.435Z,4.27
2023-04-13T23:39:57.342Z,4.36
2023-04-13T23:42:23.823Z,4.31
2023-04-13T23:44:50.319Z,4.38
2023-04-13T23:47:17.144Z,4.30
2023-04-13T23:49:43.659Z,4.35
2023-04-13T23:52:10.159Z,4.41
2023-04-13T23:54:36.741Z,4.45
2023-04-13T23:57:03.290Z,4.29
2023-04-13T23:59:29.925Z,4.21
